Terminal Aerodrome Forecast
Issued by NWS

Home | Current Version | Previous Version | Text Only | Print | Product List | Glossary On
Versions: 1 2 3 4 5 6 7 8 9 10 11 12 13 14 15
592
FTUS44 KLIX 311720
TAFMCB
TAF
KMCB 311720Z 3118/0118 VRB03KT P6SM SCT050
      TEMPO 3120/3122 VRB20G35KT 2SM TSRA BKN025CB
     FM010200 VRB03KT P6SM FEW090 SCT250
     FM011100 00000KT P6SM BKN003
     FM011400 00000KT P6SM BKN250=

USA.gov is the U.S. government's official web portal to all federal, state and local government web resources and services.